sensor_id;sensor_type;location;lat;lon;timestamp;temperature;humidity
5476;DHT22;2760;50.000;9.194;2023-07-29T00:02:00;17.80;99.90
5476;DHT22;2760;50.000;9.194;2023-07-29T00:04:30;17.80;99.90
5476;DHT22;2760;50.000;9.194;2023-07-29T00:06:57;17.80;99.90
5476;DHT22;2760;50.000;9.194;2023-07-29T00:09:24;17.90;99.90
5476;DHT22;2760;50.000;9.194;2023-07-29T00:11:53;17.60;99.90
5476;DHT22;2760;50.000;9.194;2023-07-29T00:14:21;17.80;99.90
5476;DHT22;2760;50.000;9.194;2023-07-29T00:16:48;17.90;99.90
5476;DHT22;2760;50.000;9.194;2023-07-29T00:19:15;17.10;99.90
5476;DHT22;2760;50.000;9.194;2023-07-29T00:21:42;17.80;99.90
5476;DHT22;2760;50.000;9.194;2023-07-29T00:24:09;17.70;99.90
5476;DHT22;2760;50.000;9.194;2023-07-29T00:26:36;17.70;99.90
5476;DHT22;2760;50.000;9.194;2023-07-29T00:29:05;17.70;99.90
5476;DHT22;2760;50.000;9.194;2023-07-29T00:31:32;17.70;99.90
5476;DHT22;2760;50.000;9.194;2023-07-29T00:34:00;16.20;99.90
5476;DHT22;2760;50.000;9.194;2023-07-29T00:36:27;17.70;99.90
5476;DHT22;2760;50.000;9.194;2023-07-29T00:38:54;17.80;99.90
5476;DHT22;2760;50.000;9.194;2023-07-29T00:43:50;17.70;99.90
5476;DHT22;2760;50.000;9.194;2023-07-29T00:46:20;17.80;99.90
5476;DHT22;2760;50.000;9.194;2023-07-29T00:48:48;17.70;99.90
5476;DHT22;2760;50.000;9.194;2023-07-29T00:51:15;17.70;99.90
5476;DHT22;2760;50.000;9.194;2023-07-29T00:53:42;17.70;99.90
5476;DHT22;2760;50.000;9.194;2023-07-29T00:56:09;17.80;99.90
5476;DHT22;2760;50.000;9.194;2023-07-29T00:58:38;16.80;99.90
5476;DHT22;2760;50.000;9.194;2023-07-29T01:01:05;17.80;99.90
5476;DHT22;2760;50.000;9.194;2023-07-29T01:03:35;17.80;99.90
5476;DHT22;2760;50.000;9.194;2023-07-29T01:06:11;17.80;99.90
5476;DHT22;2760;50.000;9.194;2023-07-29T01:08:47;17.90;99.90
5476;DHT22;2760;50.000;9.194;2023-07-29T01:11:31;17.80;99.90
5476;DHT22;2760;50.000;9.194;2023-07-29T01:14:04;17.80;99.90
5476;DHT22;2760;50.000;9.194;2023-07-29T01:16:38;18.00;99.90
5476;DHT22;2760;50.000;9.194;2023-07-29T01:19:16;17.80;99.90
5476;DHT22;2760;50.000;9.194;2023-07-29T01:22:03;16.90;99.90
5476;DHT22;2760;50.000;9.194;2023-07-29T01:24:32;17.80;99.90
5476;DHT22;2760;50.000;9.194;2023-07-29T01:26:59;17.50;99.90
5476;DHT22;2760;50.000;9.194;2023-07-29T01:29:29;17.80;99.90
5476;DHT22;2760;50.000;9.194;2023-07-29T01:32:00;17.80;99.90
5476;DHT22;2760;50.000;9.194;2023-07-29T01:34:32;17.70;99.90
5476;DHT22;2760;50.000;9.194;2023-07-29T01:37:02;17.90;99.90
5476;DHT22;2760;50.000;9.194;2023-07-29T01:39:35;17.90;99.90
5476;DHT22;2760;50.000;9.194;2023-07-29T01:42:04;17.90;99.90
5476;DHT22;2760;50.000;9.194;2023-07-29T01:44:32;17.90;99.90
5476;DHT22;2760;50.000;9.194;2023-07-29T01:47:00;18.00;99.90
5476;DHT22;2760;50.000;9.194;2023-07-29T01:49:27;17.90;99.90
5476;DHT22;2760;50.000;9.194;2023-07-29T01:51:55;18.10;99.90
5476;DHT22;2760;50.000;9.194;2023-07-29T01:54:22;17.90;99.90
5476;DHT22;2760;50.000;9.194;2023-07-29T01:56:52;17.90;99.90
5476;DHT22;2760;50.000;9.194;2023-07-29T01:59:19;18.00;99.90
5476;DHT22;2760;50.000;9.194;2023-07-29T02:01:46;17.90;99.90
5476;DHT22;2760;50.000;9.194;2023-07-29T02:04:14;17.90;99.90
5476;DHT22;2760;50.000;9.194;2023-07-29T02:06:41;17.80;99.90
5476;DHT22;2760;50.000;9.194;2023-07-29T02:09:09;17.80;99.90
5476;DHT22;2760;50.000;9.194;2023-07-29T02:11:36;17.90;99.90
5476;DHT22;2760;50.000;9.194;2023-07-29T02:14:05;17.80;99.90
5476;DHT22;2760;50.000;9.194;2023-07-29T02:16:32;17.80;99.90
5476;DHT22;2760;50.000;9.194;2023-07-29T02:19:00;17.80;99.90
5476;DHT22;2760;50.000;9.194;2023-07-29T02:21:27;17.80;99.90
5476;DHT22;2760;50.000;9.194;2023-07-29T02:23:54;17.70;99.90
5476;DHT22;2760;50.000;9.194;2023-07-29T02:26:22;17.70;99.90
5476;DHT22;2760;50.000;9.194;2023-07-29T02:28:49;17.70;99.90
5476;DHT22;2760;50.000;9.194;2023-07-29T02:31:20;17.80;99.90
5476;DHT22;2760;50.000;9.194;2023-07-29T02:33:48;17.70;99.90
5476;DHT22;2760;50.000;9.194;2023-07-29T02:36:17;17.70;99.90
5476;DHT22;2760;50.000;9.194;2023-07-29T02:38:44;17.70;99.90
5476;DHT22;2760;50.000;9.194;2023-07-29T02:41:11;17.60;99.90
5476;DHT22;2760;50.000;9.194;2023-07-29T02:43:39;17.70;99.90
5476;DHT22;2760;50.000;9.194;2023-07-29T02:46:07;17.80;99.90
5476;DHT22;2760;50.000;9.194;2023-07-29T02:48:35;17.80;99.90
5476;DHT22;2760;50.000;9.194;2023-07-29T02:51:03;17.80;99.90
5476;DHT22;2760;50.000;9.194;2023-07-29T02:53:30;17.80;99.90
5476;DHT22;2760;50.000;9.194;2023-07-29T02:58:24;17.90;99.90
5476;DHT22;2760;50.000;9.194;2023-07-29T03:00:52;17.80;99.90
5476;DHT22;2760;50.000;9.194;2023-07-29T03:03:19;17.90;99.90
5476;DHT22;2760;50.000;9.194;2023-07-29T03:05:47;17.80;99.90
5476;DHT22;2760;50.000;9.194;2023-07-29T03:08:15;17.90;99.90
5476;DHT22;2760;50.000;9.194;2023-07-29T03:10:42;17.70;99.90
5476;DHT22;2760;50.000;9.194;2023-07-29T03:13:09;17.80;99.90
5476;DHT22;2760;50.000;9.194;2023-07-29T03:15:36;17.90;99.90
5476;DHT22;2760;50.000;9.194;2023-07-29T03:18:03;17.70;99.90
5476;DHT22;2760;50.000;9.194;2023-07-29T03:20:31;17.70;99.90
5476;DHT22;2760;50.000;9.194;2023-07-29T03:22:59;17.90;99.90
5476;DHT22;2760;50.000;9.194;2023-07-29T03:25:27;17.90;99.90
5476;DHT22;2760;50.000;9.194;2023-07-29T03:27:54;17.90;99.90
5476;DHT22;2760;50.000;9.194;2023-07-29T03:30:22;16.00;99.90
5476;DHT22;2760;50.000;9.194;2023-07-29T03:32:50;17.90;99.90
5476;DHT22;2760;50.000;9.194;2023-07-29T03:35:18;17.90;99.90
5476;DHT22;2760;50.000;9.194;2023-07-29T03:37:45;18.00;99.90
5476;DHT22;2760;50.000;9.194;2023-07-29T03:40:16;18.00;99.90
5476;DHT22;2760;50.000;9.194;2023-07-29T03:42:44;18.00;99.90
5476;DHT22;2760;50.000;9.194;2023-07-29T03:45:11;18.00;99.90
5476;DHT22;2760;50.000;9.194;2023-07-29T03:47:38;17.90;99.90
5476;DHT22;2760;50.000;9.194;2023-07-29T03:50:06;18.00;99.90
5476;DHT22;2760;50.000;9.194;2023-07-29T03:52:33;17.90;99.90
5476;DHT22;2760;50.000;9.194;2023-07-29T03:55:00;18.00;99.90
5476;DHT22;2760;50.000;9.194;2023-07-29T03:57:29;16.90;99.90
5476;DHT22;2760;50.000;9.194;2023-07-29T03:59:57;18.00;99.90
5476;DHT22;2760;50.000;9.194;2023-07-29T04:02:24;17.90;99.90
5476;DHT22;2760;50.000;9.194;2023-07-29T04:04:51;16.50;99.90
5476;DHT22;2760;50.000;9.194;2023-07-29T04:07:19;18.10;99.90
5476;DHT22;2760;50.000;9.194;2023-07-29T04:09:46;18.00;99.90
5476;DHT22;2760;50.000;9.194;2023-07-29T04:12:13;18.10;99.90
5476;DHT22;2760;50.000;9.194;2023-07-29T04:14:41;18.00;99.90
5476;DHT22;2760;50.000;9.194;2023-07-29T04:17:09;18.10;99.90
5476;DHT22;2760;50.000;9.194;2023-07-29T04:19:36;17.50;99.90
5476;DHT22;2760;50.000;9.194;2023-07-29T04:22:03;18.20;99.90
5476;DHT22;2760;50.000;9.194;2023-07-29T04:24:31;18.00;99.90
5476;DHT22;2760;50.000;9.194;2023-07-29T04:26:58;18.20;99.90
5476;DHT22;2760;50.000;9.194;2023-07-29T04:29:25;18.20;99.90
5476;DHT22;2760;50.000;9.194;2023-07-29T04:31:55;18.10;99.90
5476;DHT22;2760;50.000;9.194;2023-07-29T04:34:27;18.20;99.90
5476;DHT22;2760;50.000;9.194;2023-07-29T04:36:54;18.20;99.90
5476;DHT22;2760;50.000;9.194;2023-07-29T04:39:21;18.20;99.90
5476;DHT22;2760;50.000;9.194;2023-07-29T04:41:49;18.30;99.90
5476;DHT22;2760;50.000;9.194;2023-07-29T04:44:16;18.20;99.90
5476;DHT22;2760;50.000;9.194;2023-07-29T04:46:44;18.30;99.90
5476;DHT22;2760;50.000;9.194;2023-07-29T04:49:13;18.20;99.90
5476;DHT22;2760;50.000;9.194;2023-07-29T04:51:40;18.30;99.90
5476;DHT22;2760;50.000;9.194;2023-07-29T04:54:07;18.30;99.90
5476;DHT22;2760;50.000;9.194;2023-07-29T04:56:34;18.30;99.90
5476;DHT22;2760;50.000;9.194;2023-07-29T04:59:01;18.40;99.90
5476;DHT22;2760;50.000;9.194;2023-07-29T05:01:28;18.30;99.90
5476;DHT22;2760;50.000;9.194;2023-07-29T05:03:55;18.40;99.90
5476;DHT22;2760;50.000;9.194;2023-07-29T05:06:24;18.40;99.90
5476;DHT22;2760;50.000;9.194;2023-07-29T05:08:51;18.50;99.90
5476;DHT22;2760;50.000;9.194;2023-07-29T05:11:18;18.50;99.90
5476;DHT22;2760;50.000;9.194;2023-07-29T05:13:45;18.50;99.90
5476;DHT22;2760;50.000;9.194;2023-07-29T05:16:13;18.50;99.90
5476;DHT22;2760;50.000;9.194;2023-07-29T05:18:40;18.60;99.90
5476;DHT22;2760;50.000;9.194;2023-07-29T05:21:07;17.20;99.90
5476;DHT22;2760;50.000;9.194;2023-07-29T05:23:38;18.60;99.90
5476;DHT22;2760;50.000;9.194;2023-07-29T05:26:06;18.80;99.90
5476;DHT22;2760;50.000;9.194;2023-07-29T05:28:33;18.80;99.90
5476;DHT22;2760;50.000;9.194;2023-07-29T05:31:00;18.80;99.90
5476;DHT22;2760;50.000;9.194;2023-07-29T05:33:28;19.00;99.90
5476;DHT22;2760;50.000;9.194;2023-07-29T05:35:55;18.90;99.90
5476;DHT22;2760;50.000;9.194;2023-07-29T05:38:23;19.00;99.90
5476;DHT22;2760;50.000;9.194;2023-07-29T05:40:52;19.00;99.90
5476;DHT22;2760;50.000;9.194;2023-07-29T05:43:19;19.10;99.90
5476;DHT22;2760;50.000;9.194;2023-07-29T05:45:46;19.10;99.90
5476;DHT22;2760;50.000;9.194;2023-07-29T05:48:13;19.20;99.90
5476;DHT22;2760;50.000;9.194;2023-07-29T05:50:41;19.20;99.90
5476;DHT22;2760;50.000;9.194;2023-07-29T05:53:08;19.20;99.90
5476;DHT22;2760;50.000;9.194;2023-07-29T05:55:36;19.20;99.90
5476;DHT22;2760;50.000;9.194;2023-07-29T05:58:04;19.20;99.90
5476;DHT22;2760;50.000;9.194;2023-07-29T06:00:32;19.40;99.90
5476;DHT22;2760;50.000;9.194;2023-07-29T06:03:00;19.30;99.90
5476;DHT22;2760;50.000;9.194;2023-07-29T06:05:27;19.40;99.90
5476;DHT22;2760;50.000;9.194;2023-07-29T06:07:54;19.30;99.90
5476;DHT22;2760;50.000;9.194;2023-07-29T06:10:21;19.50;99.90
5476;DHT22;2760;50.000;9.194;2023-07-29T06:12:50;19.50;99.90
5476;DHT22;2760;50.000;9.194;2023-07-29T06:15:20;19.60;99.90
5476;DHT22;2760;50.000;9.194;2023-07-29T06:17:48;19.80;99.90
5476;DHT22;2760;50.000;9.194;2023-07-29T06:20:16;19.70;99.90
5476;DHT22;2760;50.000;9.194;2023-07-29T06:22:43;19.80;99.90
5476;DHT22;2760;50.000;9.194;2023-07-29T06:25:10;19.80;99.90
5476;DHT22;2760;50.000;9.194;2023-07-29T06:27:38;19.80;99.90
5476;DHT22;2760;50.000;9.194;2023-07-29T06:30:06;19.90;99.90
5476;DHT22;2760;50.000;9.194;2023-07-29T06:32:35;20.00;99.90
5476;DHT22;2760;50.000;9.194;2023-07-29T06:35:03;20.00;99.90
5476;DHT22;2760;50.000;9.194;2023-07-29T06:37:47;20.10;99.90
5476;DHT22;2760;50.000;9.194;2023-07-29T06:40:22;20.10;99.90
5476;DHT22;2760;50.000;9.194;2023-07-29T06:42:49;20.10;99.90
5476;DHT22;2760;50.000;9.194;2023-07-29T06:45:17;20.20;99.90
5476;DHT22;2760;50.000;9.194;2023-07-29T06:47:46;20.30;99.90
5476;DHT22;2760;50.000;9.194;2023-07-29T06:50:13;20.20;99.90
5476;DHT22;2760;50.000;9.194;2023-07-29T06:52:40;20.20;99.90
5476;DHT22;2760;50.000;9.194;2023-07-29T06:55:07;20.20;99.90
5476;DHT22;2760;50.000;9.194;2023-07-29T06:57:35;20.10;99.90
5476;DHT22;2760;50.000;9.194;2023-07-29T07:00:03;20.10;99.90
5476;DHT22;2760;50.000;9.194;2023-07-29T07:02:30;20.20;99.90
5476;DHT22;2760;50.000;9.194;2023-07-29T07:05:08;20.20;99.90
5476;DHT22;2760;50.000;9.194;2023-07-29T07:07:35;20.20;99.90
5476;DHT22;2760;50.000;9.194;2023-07-29T07:10:05;20.20;99.90
5476;DHT22;2760;50.000;9.194;2023-07-29T07:12:32;20.30;99.90
5476;DHT22;2760;50.000;9.194;2023-07-29T07:15:00;20.20;99.90
5476;DHT22;2760;50.000;9.194;2023-07-29T07:17:29;20.10;99.90
5476;DHT22;2760;50.000;9.194;2023-07-29T07:19:56;18.50;99.90
5476;DHT22;2760;50.000;9.194;2023-07-29T07:22:27;20.20;99.90
5476;DHT22;2760;50.000;9.194;2023-07-29T07:24:54;20.20;99.90
5476;DHT22;2760;50.000;9.194;2023-07-29T07:27:21;20.20;99.90
5476;DHT22;2760;50.000;9.194;2023-07-29T07:29:50;20.20;99.90
5476;DHT22;2760;50.000;9.194;2023-07-29T07:32:17;20.10;99.90
5476;DHT22;2760;50.000;9.194;2023-07-29T07:34:47;20.10;99.90
5476;DHT22;2760;50.000;9.194;2023-07-29T07:37:15;20.20;99.90
5476;DHT22;2760;50.000;9.194;2023-07-29T07:39:47;20.30;99.90
5476;DHT22;2760;50.000;9.194;2023-07-29T07:42:15;20.20;99.90
5476;DHT22;2760;50.000;9.194;2023-07-29T07:44:44;20.20;99.90
5476;DHT22;2760;50.000;9.194;2023-07-29T07:47:11;20.20;99.90
5476;DHT22;2760;50.000;9.194;2023-07-29T07:49:39;20.20;99.90
5476;DHT22;2760;50.000;9.194;2023-07-29T07:52:09;19.40;99.90
5476;DHT22;2760;50.000;9.194;2023-07-29T07:54:37;19.80;99.90
5476;DHT22;2760;50.000;9.194;2023-07-29T07:57:06;19.60;99.90
5476;DHT22;2760;50.000;9.194;2023-07-29T07:59:33;19.80;99.90
5476;DHT22;2760;50.000;9.194;2023-07-29T08:02:00;19.60;99.90
5476;DHT22;2760;50.000;9.194;2023-07-29T08:04:28;19.70;99.90
5476;DHT22;2760;50.000;9.194;2023-07-29T08:06:56;19.70;99.90
5476;DHT22;2760;50.000;9.194;2023-07-29T08:09:24;19.80;99.90
5476;DHT22;2760;50.000;9.194;2023-07-29T08:14:20;19.70;99.90
5476;DHT22;2760;50.000;9.194;2023-07-29T08:16:49;19.60;99.90
5476;DHT22;2760;50.000;9.194;2023-07-29T08:19:23;19.70;99.90
5476;DHT22;2760;50.000;9.194;2023-07-29T08:22:06;19.70;99.90
5476;DHT22;2760;50.000;9.194;2023-07-29T08:24:37;19.60;99.90
5476;DHT22;2760;50.000;9.194;2023-07-29T08:27:18;19.60;99.90
5476;DHT22;2760;50.000;9.194;2023-07-29T08:29:54;19.70;99.90
5476;DHT22;2760;50.000;9.194;2023-07-29T08:32:23;19.60;99.90
5476;DHT22;2760;50.000;9.194;2023-07-29T08:34:50;19.60;99.90
5476;DHT22;2760;50.000;9.194;2023-07-29T08:37:26;19.60;99.90
5476;DHT22;2760;50.000;9.194;2023-07-29T08:40:00;19.70;99.90
5476;DHT22;2760;50.000;9.194;2023-07-29T08:42:31;19.50;99.90
5476;DHT22;2760;50.000;9.194;2023-07-29T08:45:06;19.70;99.90
5476;DHT22;2760;50.000;9.194;2023-07-29T08:47:39;19.70;99.90
5476;DHT22;2760;50.000;9.194;2023-07-29T08:50:08;19.70;99.90
5476;DHT22;2760;50.000;9.194;2023-07-29T08:52:36;19.90;99.90
5476;DHT22;2760;50.000;9.194;2023-07-29T08:55:07;20.00;99.90
5476;DHT22;2760;50.000;9.194;2023-07-29T08:57:34;20.00;99.90
5476;DHT22;2760;50.000;9.194;2023-07-29T09:00:05;20.20;99.90
5476;DHT22;2760;50.000;9.194;2023-07-29T09:02:33;20.10;99.90
5476;DHT22;2760;50.000;9.194;2023-07-29T09:05:01;20.20;99.90
5476;DHT22;2760;50.000;9.194;2023-07-29T09:07:29;18.90;99.90
5476;DHT22;2760;50.000;9.194;2023-07-29T09:09:56;20.70;99.90
5476;DHT22;2760;50.000;9.194;2023-07-29T09:12:23;21.20;99.90
5476;DHT22;2760;50.000;9.194;2023-07-29T09:14:52;21.10;99.90
5476;DHT22;2760;50.000;9.194;2023-07-29T09:17:21;21.10;99.90
5476;DHT22;2760;50.000;9.194;2023-07-29T09:19:49;21.30;99.90
5476;DHT22;2760;50.000;9.194;2023-07-29T09:22:20;21.50;99.90
5476;DHT22;2760;50.000;9.194;2023-07-29T09:24:48;22.00;99.90
5476;DHT22;2760;50.000;9.194;2023-07-29T09:27:24;22.20;99.90
5476;DHT22;2760;50.000;9.194;2023-07-29T09:29:52;22.80;99.90
5476;DHT22;2760;50.000;9.194;2023-07-29T09:32:21;23.30;99.90
5476;DHT22;2760;50.000;9.194;2023-07-29T09:34:48;23.70;99.90
5476;DHT22;2760;50.000;9.194;2023-07-29T09:37:16;24.00;99.90
5476;DHT22;2760;50.000;9.194;2023-07-29T09:39:46;24.20;99.90
5476;DHT22;2760;50.000;9.194;2023-07-29T09:42:18;24.20;99.90
5476;DHT22;2760;50.000;9.194;2023-07-29T09:44:46;24.20;99.90
5476;DHT22;2760;50.000;9.194;2023-07-29T09:47:33;24.20;99.90
5476;DHT22;2760;50.000;9.194;2023-07-29T09:50:01;24.10;99.90
5476;DHT22;2760;50.000;9.194;2023-07-29T09:52:28;23.90;99.90
5476;DHT22;2760;50.000;9.194;2023-07-29T09:54:56;24.00;99.90
5476;DHT22;2760;50.000;9.194;2023-07-29T09:57:24;23.80;99.90
5476;DHT22;2760;50.000;9.194;2023-07-29T09:59:59;23.40;99.90
5476;DHT22;2760;50.000;9.194;2023-07-29T10:02:30;23.70;99.90
5476;DHT22;2760;50.000;9.194;2023-07-29T10:05:00;23.80;99.90
5476;DHT22;2760;50.000;9.194;2023-07-29T10:07:28;24.10;99.90
5476;DHT22;2760;50.000;9.194;2023-07-29T10:09:56;24.40;99.90
5476;DHT22;2760;50.000;9.194;2023-07-29T10:12:25;24.80;99.90
5476;DHT22;2760;50.000;9.194;2023-07-29T10:14:53;25.30;99.90
5476;DHT22;2760;50.000;9.194;2023-07-29T10:17:21;25.10;99.90
5476;DHT22;2760;50.000;9.194;2023-07-29T10:20:05;24.90;99.90
5476;DHT22;2760;50.000;9.194;2023-07-29T10:22:35;25.30;99.90
5476;DHT22;2760;50.000;9.194;2023-07-29T10:25:05;25.40;99.90
5476;DHT22;2760;50.000;9.194;2023-07-29T10:27:42;25.60;99.90
5476;DHT22;2760;50.000;9.194;2023-07-29T10:30:11;26.10;99.90
5476;DHT22;2760;50.000;9.194;2023-07-29T10:32:44;26.50;99.90
5476;DHT22;2760;50.000;9.194;2023-07-29T10:35:13;26.50;99.90
5476;DHT22;2760;50.000;9.194;2023-07-29T10:37:41;26.40;99.90
5476;DHT22;2760;50.000;9.194;2023-07-29T10:40:11;26.60;99.90
5476;DHT22;2760;50.000;9.194;2023-07-29T10:43:00;26.30;99.90
5476;DHT22;2760;50.000;9.194;2023-07-29T10:45:36;26.50;99.90
5476;DHT22;2760;50.000;9.194;2023-07-29T10:48:06;27.00;99.90
5476;DHT22;2760;50.000;9.194;2023-07-29T10:50:35;27.10;99.90
5476;DHT22;2760;50.000;9.194;2023-07-29T10:53:03;27.20;99.90
5476;DHT22;2760;50.000;9.194;2023-07-29T10:55:32;27.50;99.90
5476;DHT22;2760;50.000;9.194;2023-07-29T10:58:16;27.70;99.90
5476;DHT22;2760;50.000;9.194;2023-07-29T11:00:45;27.00;99.90
5476;DHT22;2760;50.000;9.194;2023-07-29T11:03:13;27.70;99.90
5476;DHT22;2760;50.000;9.194;2023-07-29T11:05:51;27.70;99.90
5476;DHT22;2760;50.000;9.194;2023-07-29T11:08:20;27.00;99.90
5476;DHT22;2760;50.000;9.194;2023-07-29T11:11:01;27.10;99.90
5476;DHT22;2760;50.000;9.194;2023-07-29T11:13:29;27.10;99.90
5476;DHT22;2760;50.000;9.194;2023-07-29T11:15:58;27.20;99.90
5476;DHT22;2760;50.000;9.194;2023-07-29T11:18:28;27.20;99.90
5476;DHT22;2760;50.000;9.194;2023-07-29T11:20:58;26.70;99.90
5476;DHT22;2760;50.000;9.194;2023-07-29T11:23:30;26.30;99.90
5476;DHT22;2760;50.000;9.194;2023-07-29T11:25:58;26.30;99.90
5476;DHT22;2760;50.000;9.194;2023-07-29T11:28:27;26.50;99.90
5476;DHT22;2760;50.000;9.194;2023-07-29T11:30:55;27.20;99.90
5476;DHT22;2760;50.000;9.194;2023-07-29T11:33:24;26.80;99.90
5476;DHT22;2760;50.000;9.194;2023-07-29T11:35:53;26.90;99.90
5476;DHT22;2760;50.000;9.194;2023-07-29T11:38:22;26.70;99.90
5476;DHT22;2760;50.000;9.194;2023-07-29T11:40:58;26.90;99.90
5476;DHT22;2760;50.000;9.194;2023-07-29T11:43:25;27.00;99.90
5476;DHT22;2760;50.000;9.194;2023-07-29T11:45:53;27.70;99.90
5476;DHT22;2760;50.000;9.194;2023-07-29T11:48:32;28.20;99.90
5476;DHT22;2760;50.000;9.194;2023-07-29T11:51:00;28.40;99.90
5476;DHT22;2760;50.000;9.194;2023-07-29T11:53:31;27.80;99.90
5476;DHT22;2760;50.000;9.194;2023-07-29T11:55:59;27.10;99.90
5476;DHT22;2760;50.000;9.194;2023-07-29T11:58:34;27.00;99.90
5476;DHT22;2760;50.000;9.194;2023-07-29T12:01:13;27.20;99.90
5476;DHT22;2760;50.000;9.194;2023-07-29T12:03:45;27.40;99.90
5476;DHT22;2760;50.000;9.194;2023-07-29T12:06:14;27.50;99.90
5476;DHT22;2760;50.000;9.194;2023-07-29T12:08:47;27.60;99.90
5476;DHT22;2760;50.000;9.194;2023-07-29T12:11:15;27.70;99.90
5476;DHT22;2760;50.000;9.194;2023-07-29T12:13:43;27.40;99.90
5476;DHT22;2760;50.000;9.194;2023-07-29T12:16:16;27.30;99.90
5476;DHT22;2760;50.000;9.194;2023-07-29T12:18:44;27.00;99.90
5476;DHT22;2760;50.000;9.194;2023-07-29T12:21:14;27.40;99.90
5476;DHT22;2760;50.000;9.194;2023-07-29T12:23:43;27.30;99.90
5476;DHT22;2760;50.000;9.194;2023-07-29T12:26:39;27.80;99.90
5476;DHT22;2760;50.000;9.194;2023-07-29T12:29:13;28.60;98.60
5476;DHT22;2760;50.000;9.194;2023-07-29T12:31:41;28.50;97.60
5476;DHT22;2760;50.000;9.194;2023-07-29T12:34:09;28.30;98.10
5476;DHT22;2760;50.000;9.194;2023-07-29T12:36:42;29.10;97.60
5476;DHT22;2760;50.000;9.194;2023-07-29T12:39:17;29.50;96.30
5476;DHT22;2760;50.000;9.194;2023-07-29T12:42:01;29.40;96.10
5476;DHT22;2760;50.000;9.194;2023-07-29T12:44:31;29.30;96.70
5476;DHT22;2760;50.000;9.194;2023-07-29T12:47:00;28.30;97.10
5476;DHT22;2760;50.000;9.194;2023-07-29T12:49:28;28.70;97.40
5476;DHT22;2760;50.000;9.194;2023-07-29T12:51:56;29.20;98.00
5476;DHT22;2760;50.000;9.194;2023-07-29T12:54:37;29.60;96.50
5476;DHT22;2760;50.000;9.194;2023-07-29T12:57:07;29.60;96.90
5476;DHT22;2760;50.000;9.194;2023-07-29T12:59:34;29.50;96.40
5476;DHT22;2760;50.000;9.194;2023-07-29T13:02:02;29.20;96.60
5476;DHT22;2760;50.000;9.194;2023-07-29T13:04:31;28.40;97.10
5476;DHT22;2760;50.000;9.194;2023-07-29T13:06:58;28.40;97.80
5476;DHT22;2760;50.000;9.194;2023-07-29T13:09:26;28.20;98.20
5476;DHT22;2760;50.000;9.194;2023-07-29T13:11:53;27.80;98.70
5476;DHT22;2760;50.000;9.194;2023-07-29T13:14:22;27.50;98.90
5476;DHT22;2760;50.000;9.194;2023-07-29T13:16:51;27.30;98.60
5476;DHT22;2760;50.000;9.194;2023-07-29T13:19:22;27.40;98.00
5476;DHT22;2760;50.000;9.194;2023-07-29T13:21:49;27.50;97.50
5476;DHT22;2760;50.000;9.194;2023-07-29T13:24:16;27.20;98.40
5476;DHT22;2760;50.000;9.194;2023-07-29T13:26:45;26.90;97.80
5476;DHT22;2760;50.000;9.194;2023-07-29T13:29:12;27.10;97.40
5476;DHT22;2760;50.000;9.194;2023-07-29T13:31:41;27.30;96.80
5476;DHT22;2760;50.000;9.194;2023-07-29T13:34:09;27.90;96.50
5476;DHT22;2760;50.000;9.194;2023-07-29T13:36:36;28.00;96.30
5476;DHT22;2760;50.000;9.194;2023-07-29T13:39:03;27.70;95.60
5476;DHT22;2760;50.000;9.194;2023-07-29T13:41:31;28.50;95.00
5476;DHT22;2760;50.000;9.194;2023-07-29T13:43:59;28.90;93.90
5476;DHT22;2760;50.000;9.194;2023-07-29T13:46:28;28.80;93.80
5476;DHT22;2760;50.000;9.194;2023-07-29T13:48:57;28.90;92.80
5476;DHT22;2760;50.000;9.194;2023-07-29T13:51:24;28.90;93.30
5476;DHT22;2760;50.000;9.194;2023-07-29T13:53:52;28.40;93.50
5476;DHT22;2760;50.000;9.194;2023-07-29T13:56:19;28.00;93.90
5476;DHT22;2760;50.000;9.194;2023-07-29T13:58:46;27.60;94.40
5476;DHT22;2760;50.000;9.194;2023-07-29T14:01:14;27.70;94.10
5476;DHT22;2760;50.000;9.194;2023-07-29T14:03:42;26.90;93.60
5476;DHT22;2760;50.000;9.194;2023-07-29T14:06:10;28.10;92.80
5476;DHT22;2760;50.000;9.194;2023-07-29T14:08:37;27.90;94.10
5476;DHT22;2760;50.000;9.194;2023-07-29T14:11:07;27.90;93.90
5476;DHT22;2760;50.000;9.194;2023-07-29T14:13:37;28.30;93.40
5476;DHT22;2760;50.000;9.194;2023-07-29T14:16:04;28.30;93.00
5476;DHT22;2760;50.000;9.194;2023-07-29T14:18:31;27.90;93.40
5476;DHT22;2760;50.000;9.194;2023-07-29T14:20:58;27.90;94.50
5476;DHT22;2760;50.000;9.194;2023-07-29T14:23:29;28.00;93.50
5476;DHT22;2760;50.000;9.194;2023-07-29T14:25:56;27.70;92.90
5476;DHT22;2760;50.000;9.194;2023-07-29T14:28:23;27.70;92.90
5476;DHT22;2760;50.000;9.194;2023-07-29T14:30:50;28.00;92.70
5476;DHT22;2760;50.000;9.194;2023-07-29T14:33:17;28.40;92.50
5476;DHT22;2760;50.000;9.194;2023-07-29T14:35:44;28.50;91.70
5476;DHT22;2760;50.000;9.194;2023-07-29T14:38:11;28.30;90.90
5476;DHT22;2760;50.000;9.194;2023-07-29T14:40:42;27.90;91.50
5476;DHT22;2760;50.000;9.194;2023-07-29T14:43:09;28.00;91.40
5476;DHT22;2760;50.000;9.194;2023-07-29T14:45:36;27.90;90.90
5476;DHT22;2760;50.000;9.194;2023-07-29T14:48:04;27.90;91.80
5476;DHT22;2760;50.000;9.194;2023-07-29T14:50:31;28.10;91.30
5476;DHT22;2760;50.000;9.194;2023-07-29T14:52:58;28.10;91.50
5476;DHT22;2760;50.000;9.194;2023-07-29T14:55:25;28.10;90.80
5476;DHT22;2760;50.000;9.194;2023-07-29T14:57:54;28.00;91.30
5476;DHT22;2760;50.000;9.194;2023-07-29T15:00:21;28.20;91.30
5476;DHT22;2760;50.000;9.194;2023-07-29T15:02:48;28.10;91.30
5476;DHT22;2760;50.000;9.194;2023-07-29T15:05:15;28.00;91.50
5476;DHT22;2760;50.000;9.194;2023-07-29T15:07:42;28.10;91.90
5476;DHT22;2760;50.000;9.194;2023-07-29T15:10:10;28.00;91.00
5476;DHT22;2760;50.000;9.194;2023-07-29T15:12:37;27.90;90.80
5476;DHT22;2760;50.000;9.194;2023-07-29T15:15:07;27.90;91.30
5476;DHT22;2760;50.000;9.194;2023-07-29T15:17:34;27.80;91.50
5476;DHT22;2760;50.000;9.194;2023-07-29T15:20:02;27.70;91.50
5476;DHT22;2760;50.000;9.194;2023-07-29T15:22:29;27.70;91.20
5476;DHT22;2760;50.000;9.194;2023-07-29T15:24:58;27.70;91.50
5476;DHT22;2760;50.000;9.194;2023-07-29T15:27:26;27.70;91.70
5476;DHT22;2760;50.000;9.194;2023-07-29T15:29:53;27.60;92.10
5476;DHT22;2760;50.000;9.194;2023-07-29T15:32:22;27.60;91.60
5476;DHT22;2760;50.000;9.194;2023-07-29T15:34:49;27.40;92.30
5476;DHT22;2760;50.000;9.194;2023-07-29T15:37:17;27.50;92.30
5476;DHT22;2760;50.000;9.194;2023-07-29T15:39:44;27.50;92.10
5476;DHT22;2760;50.000;9.194;2023-07-29T15:42:11;27.40;92.70
5476;DHT22;2760;50.000;9.194;2023-07-29T15:44:38;27.40;92.60
5476;DHT22;2760;50.000;9.194;2023-07-29T15:47:06;27.10;93.20
5476;DHT22;2760;50.000;9.194;2023-07-29T15:49:35;27.10;93.50
5476;DHT22;2760;50.000;9.194;2023-07-29T15:52:03;26.60;93.20
5476;DHT22;2760;50.000;9.194;2023-07-29T15:54:30;27.30;94.00
5476;DHT22;2760;50.000;9.194;2023-07-29T15:56:57;27.10;93.50
5476;DHT22;2760;50.000;9.194;2023-07-29T15:59:26;27.10;93.90
5476;DHT22;2760;50.000;9.194;2023-07-29T16:01:56;27.10;93.60
5476;DHT22;2760;50.000;9.194;2023-07-29T16:04:39;27.00;94.10
5476;DHT22;2760;50.000;9.194;2023-07-29T16:07:09;27.00;93.40
5476;DHT22;2760;50.000;9.194;2023-07-29T16:09:42;26.90;93.70
5476;DHT22;2760;50.000;9.194;2023-07-29T16:12:12;26.90;94.10
5476;DHT22;2760;50.000;9.194;2023-07-29T16:14:41;26.70;93.80
5476;DHT22;2760;50.000;9.194;2023-07-29T16:17:23;26.80;94.60
5476;DHT22;2760;50.000;9.194;2023-07-29T16:20:17;26.80;94.50
5476;DHT22;2760;50.000;9.194;2023-07-29T16:22:59;26.90;94.00